Dingess, West Virginia
Current Conditions -  °F | °C
As of 4:15 AM on Monday 22 Dec 2014 (Local Time) from KSJS Reporting Station
Broken Clouds Broken Clouds  
Wind Chill: 33°   Ceiling: 4300
Heat Index: 33°   Visibility: 10mi
Dew Point: 30°   Wind: 3mph
Humidity: 89%   Direction: 120°ESE
Pressure: 30.04"   Gusts: NA
Location:  37.87°N, 82.17°W
Report Text: KSJS 220915Z AUTO 12003KT 10SM BKN043 01/M01 A3004 RMK AO2 T00051011
Loading
Personal Weather Stations






























Interactive Weather Map New forecast layout! Learn more

10-Day Weather Forecast

Advertisements
Track Severe Weather on mobile